sensor_id;sensor_type;location;lat;lon;timestamp;P1;durP1;ratioP1;P2;durP2;ratioP2
17606;SDS011;69222;52.242;20.980;2023-05-23T00:01:31;4.65;;;3.33;;
17606;SDS011;69222;52.242;20.980;2023-05-23T00:04:03;6.25;;;4.32;;
17606;SDS011;69222;52.242;20.980;2023-05-23T00:06:31;9.05;;;3.38;;
17606;SDS011;69222;52.242;20.980;2023-05-23T00:08:59;5.32;;;3.33;;
17606;SDS011;69222;52.242;20.980;2023-05-23T00:11:28;5.07;;;3.88;;
17606;SDS011;69222;52.242;20.980;2023-05-23T00:13:56;8.23;;;3.70;;
17606;SDS011;69222;52.242;20.980;2023-05-23T00:16:27;4.60;;;3.70;;
17606;SDS011;69222;52.242;20.980;2023-05-23T00:18:57;5.95;;;3.55;;
17606;SDS011;69222;52.242;20.980;2023-05-23T00:21:27;5.32;;;3.80;;
17606;SDS011;69222;52.242;20.980;2023-05-23T00:23:56;4.95;;;3.63;;
17606;SDS011;69222;52.242;20.980;2023-05-23T00:26:25;4.90;;;3.25;;
17606;SDS011;69222;52.242;20.980;2023-05-23T00:28:55;5.07;;;3.33;;
17606;SDS011;69222;52.242;20.980;2023-05-23T00:31:24;4.80;;;3.05;;
17606;SDS011;69222;52.242;20.980;2023-05-23T00:33:52;3.53;;;3.13;;
17606;SDS011;69222;52.242;20.980;2023-05-23T00:36:22;6.75;;;3.72;;
17606;SDS011;69222;52.242;20.980;2023-05-23T00:38:50;6.82;;;3.47;;
17606;SDS011;69222;52.242;20.980;2023-05-23T00:41:18;4.78;;;3.70;;
17606;SDS011;69222;52.242;20.980;2023-05-23T00:43:46;3.50;;;3.20;;
17606;SDS011;69222;52.242;20.980;2023-05-23T00:46:14;5.13;;;3.47;;
17606;SDS011;69222;52.242;20.980;2023-05-23T00:48:43;8.77;;;3.80;;
17606;SDS011;69222;52.242;20.980;2023-05-23T00:51:11;4.63;;;3.75;;
17606;SDS011;69222;52.242;20.980;2023-05-23T00:53:41;4.90;;;3.42;;
17606;SDS011;69222;52.242;20.980;2023-05-23T00:56:09;4.18;;;3.70;;
17606;SDS011;69222;52.242;20.980;2023-05-23T00:58:42;5.57;;;4.07;;
17606;SDS011;69222;52.242;20.980;2023-05-23T01:01:10;4.15;;;3.03;;
17606;SDS011;69222;52.242;20.980;2023-05-23T01:03:38;3.33;;;3.00;;
17606;SDS011;69222;52.242;20.980;2023-05-23T01:06:06;5.88;;;3.35;;
17606;SDS011;69222;52.242;20.980;2023-05-23T01:08:34;4.38;;;3.15;;
17606;SDS011;69222;52.242;20.980;2023-05-23T01:11:05;4.35;;;3.40;;
17606;SDS011;69222;52.242;20.980;2023-05-23T01:13:41;4.82;;;3.28;;
17606;SDS011;69222;52.242;20.980;2023-05-23T01:16:15;3.95;;;3.42;;
17606;SDS011;69222;52.242;20.980;2023-05-23T01:18:47;3.72;;;3.42;;
17606;SDS011;69222;52.242;20.980;2023-05-23T01:21:23;8.32;;;3.45;;
17606;SDS011;69222;52.242;20.980;2023-05-23T01:27:00;3.67;;;3.28;;
17606;SDS011;69222;52.242;20.980;2023-05-23T01:29:37;3.95;;;3.42;;
17606;SDS011;69222;52.242;20.980;2023-05-23T01:32:09;3.63;;;3.33;;
17606;SDS011;69222;52.242;20.980;2023-05-23T01:34:39;4.80;;;3.50;;
17606;SDS011;69222;52.242;20.980;2023-05-23T01:37:08;4.00;;;3.33;;
17606;SDS011;69222;52.242;20.980;2023-05-23T01:39:36;4.93;;;3.72;;
17606;SDS011;69222;52.242;20.980;2023-05-23T01:42:05;5.28;;;3.70;;
17606;SDS011;69222;52.242;20.980;2023-05-23T01:44:34;4.30;;;3.38;;
17606;SDS011;69222;52.242;20.980;2023-05-23T01:47:05;8.32;;;3.53;;
17606;SDS011;69222;52.242;20.980;2023-05-23T01:49:36;4.70;;;3.47;;
17606;SDS011;69222;52.242;20.980;2023-05-23T01:52:04;4.15;;;3.47;;
17606;SDS011;69222;52.242;20.980;2023-05-23T01:54:36;4.15;;;3.40;;
17606;SDS011;69222;52.242;20.980;2023-05-23T01:57:08;7.28;;;3.60;;
17606;SDS011;69222;52.242;20.980;2023-05-23T01:59:38;6.03;;;3.35;;
17606;SDS011;69222;52.242;20.980;2023-05-23T02:02:06;4.15;;;3.55;;
17606;SDS011;69222;52.242;20.980;2023-05-23T02:04:37;3.75;;;3.28;;
17606;SDS011;69222;52.242;20.980;2023-05-23T02:07:05;4.60;;;3.20;;
17606;SDS011;69222;52.242;20.980;2023-05-23T02:09:33;6.43;;;4.03;;
17606;SDS011;69222;52.242;20.980;2023-05-23T02:12:01;4.95;;;3.75;;
17606;SDS011;69222;52.242;20.980;2023-05-23T02:14:29;4.85;;;3.33;;
17606;SDS011;69222;52.242;20.980;2023-05-23T02:16:58;6.93;;;3.17;;
17606;SDS011;69222;52.242;20.980;2023-05-23T02:19:26;7.10;;;3.22;;
17606;SDS011;69222;52.242;20.980;2023-05-23T02:21:54;4.85;;;3.53;;
17606;SDS011;69222;52.242;20.980;2023-05-23T02:24:22;3.53;;;3.22;;
17606;SDS011;69222;52.242;20.980;2023-05-23T02:26:50;6.18;;;3.55;;
17606;SDS011;69222;52.242;20.980;2023-05-23T02:29:18;5.80;;;3.50;;
17606;SDS011;69222;52.242;20.980;2023-05-23T02:31:46;3.58;;;3.17;;
17606;SDS011;69222;52.242;20.980;2023-05-23T02:34:15;6.03;;;3.70;;
17606;SDS011;69222;52.242;20.980;2023-05-23T02:36:45;4.88;;;3.75;;
17606;SDS011;69222;52.242;20.980;2023-05-23T02:39:13;4.88;;;3.47;;
17606;SDS011;69222;52.242;20.980;2023-05-23T02:41:40;4.35;;;3.33;;
17606;SDS011;69222;52.242;20.980;2023-05-23T02:44:08;4.43;;;3.15;;
17606;SDS011;69222;52.242;20.980;2023-05-23T02:46:36;5.63;;;3.80;;
17606;SDS011;69222;52.242;20.980;2023-05-23T02:49:04;4.90;;;2.95;;
17606;SDS011;69222;52.242;20.980;2023-05-23T02:51:34;6.85;;;3.55;;
17606;SDS011;69222;52.242;20.980;2023-05-23T02:54:02;3.88;;;3.03;;
17606;SDS011;69222;52.242;20.980;2023-05-23T02:56:30;5.50;;;3.33;;
17606;SDS011;69222;52.242;20.980;2023-05-23T02:58:58;5.20;;;3.90;;
17606;SDS011;69222;52.242;20.980;2023-05-23T03:01:26;4.18;;;3.53;;
17606;SDS011;69222;52.242;20.980;2023-05-23T03:03:54;5.38;;;3.15;;
17606;SDS011;69222;52.242;20.980;2023-05-23T03:06:22;4.85;;;3.78;;
17606;SDS011;69222;52.242;20.980;2023-05-23T03:08:52;7.90;;;3.45;;
17606;SDS011;69222;52.242;20.980;2023-05-23T03:11:22;5.50;;;3.85;;
17606;SDS011;69222;52.242;20.980;2023-05-23T03:13:50;4.55;;;3.55;;
17606;SDS011;69222;52.242;20.980;2023-05-23T03:16:18;4.13;;;3.13;;
17606;SDS011;69222;52.242;20.980;2023-05-23T03:18:47;5.30;;;3.42;;
17606;SDS011;69222;52.242;20.980;2023-05-23T03:21:15;7.00;;;3.70;;
17606;SDS011;69222;52.242;20.980;2023-05-23T03:23:43;7.50;;;3.58;;
17606;SDS011;69222;52.242;20.980;2023-05-23T03:26:12;4.75;;;3.33;;
17606;SDS011;69222;52.242;20.980;2023-05-23T03:28:40;7.50;;;3.03;;
17606;SDS011;69222;52.242;20.980;2023-05-23T03:31:08;6.03;;;3.17;;
17606;SDS011;69222;52.242;20.980;2023-05-23T03:33:36;4.43;;;2.70;;
17606;SDS011;69222;52.242;20.980;2023-05-23T03:36:06;4.10;;;2.97;;
17606;SDS011;69222;52.242;20.980;2023-05-23T03:38:34;4.72;;;3.67;;
17606;SDS011;69222;52.242;20.980;2023-05-23T03:41:02;6.32;;;3.67;;
17606;SDS011;69222;52.242;20.980;2023-05-23T03:43:31;4.60;;;3.13;;
17606;SDS011;69222;52.242;20.980;2023-05-23T03:45:59;4.80;;;3.20;;
17606;SDS011;69222;52.242;20.980;2023-05-23T03:48:27;5.05;;;3.30;;
17606;SDS011;69222;52.242;20.980;2023-05-23T03:50:56;5.57;;;3.47;;
17606;SDS011;69222;52.242;20.980;2023-05-23T03:53:24;3.90;;;3.53;;
17606;SDS011;69222;52.242;20.980;2023-05-23T03:55:52;4.05;;;2.83;;
17606;SDS011;69222;52.242;20.980;2023-05-23T03:58:20;3.63;;;2.70;;
17606;SDS011;69222;52.242;20.980;2023-05-23T04:00:53;6.43;;;3.40;;
17606;SDS011;69222;52.242;20.980;2023-05-23T04:03:21;4.95;;;3.28;;
17606;SDS011;69222;52.242;20.980;2023-05-23T04:05:51;6.20;;;3.42;;
17606;SDS011;69222;52.242;20.980;2023-05-23T04:08:19;4.60;;;3.03;;
17606;SDS011;69222;52.242;20.980;2023-05-23T04:10:47;3.63;;;3.20;;
17606;SDS011;69222;52.242;20.980;2023-05-23T04:13:15;4.30;;;2.83;;
17606;SDS011;69222;52.242;20.980;2023-05-23T04:15:44;3.60;;;3.20;;
17606;SDS011;69222;52.242;20.980;2023-05-23T04:18:14;5.45;;;3.00;;
17606;SDS011;69222;52.242;20.980;2023-05-23T04:20:42;5.25;;;3.08;;
17606;SDS011;69222;52.242;20.980;2023-05-23T04:23:10;3.35;;;2.88;;
17606;SDS011;69222;52.242;20.980;2023-05-23T04:25:38;4.93;;;3.35;;
17606;SDS011;69222;52.242;20.980;2023-05-23T04:28:07;5.65;;;3.58;;
17606;SDS011;69222;52.242;20.980;2023-05-23T04:30:35;7.43;;;3.33;;
17606;SDS011;69222;52.242;20.980;2023-05-23T04:33:03;4.65;;;3.47;;
17606;SDS011;69222;52.242;20.980;2023-05-23T04:35:33;5.38;;;3.35;;
17606;SDS011;69222;52.242;20.980;2023-05-23T04:38:04;7.30;;;3.30;;
17606;SDS011;69222;52.242;20.980;2023-05-23T04:40:32;5.03;;;3.40;;
17606;SDS011;69222;52.242;20.980;2023-05-23T04:43:00;5.03;;;3.63;;
17606;SDS011;69222;52.242;20.980;2023-05-23T04:45:29;3.45;;;3.15;;
17606;SDS011;69222;52.242;20.980;2023-05-23T04:47:57;8.63;;;3.80;;
17606;SDS011;69222;52.242;20.980;2023-05-23T04:50:25;5.30;;;3.10;;
17606;SDS011;69222;52.242;20.980;2023-05-23T04:52:58;6.15;;;3.00;;
17606;SDS011;69222;52.242;20.980;2023-05-23T04:55:26;3.83;;;3.30;;
17606;SDS011;69222;52.242;20.980;2023-05-23T04:57:54;3.92;;;3.10;;
17606;SDS011;69222;52.242;20.980;2023-05-23T05:00:22;3.60;;;2.85;;
17606;SDS011;69222;52.242;20.980;2023-05-23T05:02:50;7.25;;;3.55;;
17606;SDS011;69222;52.242;20.980;2023-05-23T05:05:18;4.20;;;3.10;;
17606;SDS011;69222;52.242;20.980;2023-05-23T05:07:46;3.83;;;3.20;;
17606;SDS011;69222;52.242;20.980;2023-05-23T05:10:16;6.72;;;3.47;;
17606;SDS011;69222;52.242;20.980;2023-05-23T05:12:44;7.93;;;3.00;;
17606;SDS011;69222;52.242;20.980;2023-05-23T05:15:15;4.13;;;3.10;;
17606;SDS011;69222;52.242;20.980;2023-05-23T05:17:43;4.68;;;3.13;;
17606;SDS011;69222;52.242;20.980;2023-05-23T05:20:15;6.03;;;3.47;;
17606;SDS011;69222;52.242;20.980;2023-05-23T05:22:43;5.15;;;3.38;;
17606;SDS011;69222;52.242;20.980;2023-05-23T05:25:11;2.90;;;2.63;;
17606;SDS011;69222;52.242;20.980;2023-05-23T05:27:40;6.47;;;3.63;;
17606;SDS011;69222;52.242;20.980;2023-05-23T05:30:11;5.82;;;3.33;;
17606;SDS011;69222;52.242;20.980;2023-05-23T05:32:39;5.65;;;2.95;;
17606;SDS011;69222;52.242;20.980;2023-05-23T05:35:11;3.13;;;2.67;;
17606;SDS011;69222;52.242;20.980;2023-05-23T05:37:40;5.47;;;4.22;;
17606;SDS011;69222;52.242;20.980;2023-05-23T05:40:08;7.28;;;3.35;;
17606;SDS011;69222;52.242;20.980;2023-05-23T05:42:36;5.25;;;3.33;;
17606;SDS011;69222;52.242;20.980;2023-05-23T05:45:06;6.28;;;3.30;;
17606;SDS011;69222;52.242;20.980;2023-05-23T05:47:34;4.78;;;3.22;;
17606;SDS011;69222;52.242;20.980;2023-05-23T05:50:04;7.53;;;3.25;;
17606;SDS011;69222;52.242;20.980;2023-05-23T05:52:33;4.47;;;2.95;;
17606;SDS011;69222;52.242;20.980;2023-05-23T05:55:04;9.35;;;3.40;;
17606;SDS011;69222;52.242;20.980;2023-05-23T05:57:33;6.68;;;3.17;;
17606;SDS011;69222;52.242;20.980;2023-05-23T06:00:06;6.32;;;2.67;;
17606;SDS011;69222;52.242;20.980;2023-05-23T06:02:39;4.60;;;2.85;;
17606;SDS011;69222;52.242;20.980;2023-05-23T06:05:08;4.38;;;3.30;;
17606;SDS011;69222;52.242;20.980;2023-05-23T06:07:37;6.55;;;2.92;;
17606;SDS011;69222;52.242;20.980;2023-05-23T06:10:06;4.22;;;3.08;;
17606;SDS011;69222;52.242;20.980;2023-05-23T06:12:35;5.80;;;2.97;;
17606;SDS011;69222;52.242;20.980;2023-05-23T06:15:03;6.32;;;3.30;;
17606;SDS011;69222;52.242;20.980;2023-05-23T06:17:33;5.85;;;3.00;;
17606;SDS011;69222;52.242;20.980;2023-05-23T06:20:02;7.32;;;2.88;;
17606;SDS011;69222;52.242;20.980;2023-05-23T06:22:31;4.35;;;3.10;;
17606;SDS011;69222;52.242;20.980;2023-05-23T06:24:59;7.57;;;3.30;;
17606;SDS011;69222;52.242;20.980;2023-05-23T06:27:27;5.32;;;2.80;;
17606;SDS011;69222;52.242;20.980;2023-05-23T06:29:55;4.72;;;3.00;;
17606;SDS011;69222;52.242;20.980;2023-05-23T06:32:23;5.93;;;2.90;;
17606;SDS011;69222;52.242;20.980;2023-05-23T06:34:52;8.75;;;3.55;;
17606;SDS011;69222;52.242;20.980;2023-05-23T06:37:20;7.70;;;2.75;;
17606;SDS011;69222;52.242;20.980;2023-05-23T06:39:48;4.18;;;2.67;;
17606;SDS011;69222;52.242;20.980;2023-05-23T06:42:16;3.38;;;2.60;;
17606;SDS011;69222;52.242;20.980;2023-05-23T06:44:44;6.03;;;2.60;;
17606;SDS011;69222;52.242;20.980;2023-05-23T06:47:12;3.13;;;2.75;;
17606;SDS011;69222;52.242;20.980;2023-05-23T06:49:40;3.03;;;2.55;;
17606;SDS011;69222;52.242;20.980;2023-05-23T06:52:10;4.20;;;2.65;;
17606;SDS011;69222;52.242;20.980;2023-05-23T06:54:37;5.15;;;2.67;;
17606;SDS011;69222;52.242;20.980;2023-05-23T06:57:05;3.63;;;2.70;;
17606;SDS011;69222;52.242;20.980;2023-05-23T06:59:33;4.78;;;2.65;;
17606;SDS011;69222;52.242;20.980;2023-05-23T07:02:01;6.18;;;3.03;;
17606;SDS011;69222;52.242;20.980;2023-05-23T07:04:29;5.45;;;2.65;;
17606;SDS011;69222;52.242;20.980;2023-05-23T07:06:57;3.25;;;2.80;;
17606;SDS011;69222;52.242;20.980;2023-05-23T07:09:27;3.03;;;2.42;;
17606;SDS011;69222;52.242;20.980;2023-05-23T07:11:55;4.50;;;2.40;;
17606;SDS011;69222;52.242;20.980;2023-05-23T07:14:23;4.32;;;2.60;;
17606;SDS011;69222;52.242;20.980;2023-05-23T07:16:51;4.53;;;2.53;;
17606;SDS011;69222;52.242;20.980;2023-05-23T07:19:19;3.70;;;2.38;;
17606;SDS011;69222;52.242;20.980;2023-05-23T07:21:47;3.88;;;2.05;;
17606;SDS011;69222;52.242;20.980;2023-05-23T07:24:15;4.40;;;2.25;;
17606;SDS011;69222;52.242;20.980;2023-05-23T07:26:44;6.65;;;2.50;;
17606;SDS011;69222;52.242;20.980;2023-05-23T07:29:12;3.17;;;2.10;;
17606;SDS011;69222;52.242;20.980;2023-05-23T07:31:40;4.45;;;2.33;;
17606;SDS011;69222;52.242;20.980;2023-05-23T07:34:08;4.47;;;2.20;;
17606;SDS011;69222;52.242;20.980;2023-05-23T07:36:36;2.03;;;1.85;;
17606;SDS011;69222;52.242;20.980;2023-05-23T07:39:06;4.05;;;2.33;;
17606;SDS011;69222;52.242;20.980;2023-05-23T07:41:34;2.90;;;2.05;;
17606;SDS011;69222;52.242;20.980;2023-05-23T07:44:03;5.13;;;2.13;;
17606;SDS011;69222;52.242;20.980;2023-05-23T07:46:32;4.10;;;2.40;;
17606;SDS011;69222;52.242;20.980;2023-05-23T07:49:00;5.05;;;2.25;;
17606;SDS011;69222;52.242;20.980;2023-05-23T07:51:28;9.88;;;2.40;;
17606;SDS011;69222;52.242;20.980;2023-05-23T07:53:56;2.78;;;2.30;;
17606;SDS011;69222;52.242;20.980;2023-05-23T07:56:24;3.90;;;2.38;;
17606;SDS011;69222;52.242;20.980;2023-05-23T07:58:52;5.30;;;2.15;;
17606;SDS011;69222;52.242;20.980;2023-05-23T08:01:22;4.22;;;2.45;;
17606;SDS011;69222;52.242;20.980;2023-05-23T08:03:50;2.95;;;2.60;;
17606;SDS011;69222;52.242;20.980;2023-05-23T08:06:18;5.07;;;2.72;;
17606;SDS011;69222;52.242;20.980;2023-05-23T08:08:46;3.58;;;2.40;;
17606;SDS011;69222;52.242;20.980;2023-05-23T08:11:14;3.95;;;2.50;;
17606;SDS011;69222;52.242;20.980;2023-05-23T08:13:43;4.65;;;2.78;;
17606;SDS011;69222;52.242;20.980;2023-05-23T08:16:10;3.85;;;2.50;;
17606;SDS011;69222;52.242;20.980;2023-05-23T08:18:40;6.55;;;2.25;;
17606;SDS011;69222;52.242;20.980;2023-05-23T08:21:08;3.33;;;2.22;;
17606;SDS011;69222;52.242;20.980;2023-05-23T08:23:36;3.90;;;2.13;;
17606;SDS011;69222;52.242;20.980;2023-05-23T08:26:04;2.92;;;2.60;;
17606;SDS011;69222;52.242;20.980;2023-05-23T08:28:32;4.95;;;2.33;;
17606;SDS011;69222;52.242;20.980;2023-05-23T08:31:01;3.67;;;2.40;;
17606;SDS011;69222;52.242;20.980;2023-05-23T08:33:29;3.42;;;2.40;;
17606;SDS011;69222;52.242;20.980;2023-05-23T08:35:58;2.80;;;2.45;;
17606;SDS011;69222;52.242;20.980;2023-05-23T08:38:26;2.92;;;2.53;;
17606;SDS011;69222;52.242;20.980;2023-05-23T08:40:54;3.60;;;2.08;;
17606;SDS011;69222;52.242;20.980;2023-05-23T08:43:24;2.97;;;2.15;;
17606;SDS011;69222;52.242;20.980;2023-05-23T08:45:52;3.58;;;2.05;;
17606;SDS011;69222;52.242;20.980;2023-05-23T08:48:20;5.38;;;2.78;;
17606;SDS011;69222;52.242;20.980;2023-05-23T08:50:49;3.17;;;2.03;;
17606;SDS011;69222;52.242;20.980;2023-05-23T08:53:20;5.38;;;2.50;;
17606;SDS011;69222;52.242;20.980;2023-05-23T08:55:53;5.00;;;2.08;;
17606;SDS011;69222;52.242;20.980;2023-05-23T08:58:24;8.93;;;2.72;;
17606;SDS011;69222;52.242;20.980;2023-05-23T09:00:54;4.07;;;2.20;;
17606;SDS011;69222;52.242;20.980;2023-05-23T09:03:23;2.65;;;2.22;;
17606;SDS011;69222;52.242;20.980;2023-05-23T09:05:52;4.95;;;2.45;;
17606;SDS011;69222;52.242;20.980;2023-05-23T09:08:22;3.75;;;2.38;;
17606;SDS011;69222;52.242;20.980;2023-05-23T09:10:51;4.78;;;2.65;;
17606;SDS011;69222;52.242;20.980;2023-05-23T09:13:20;3.53;;;1.98;;
17606;SDS011;69222;52.242;20.980;2023-05-23T09:16:00;2.20;;;1.63;;
17606;SDS011;69222;52.242;20.980;2023-05-23T09:18:32;2.92;;;2.35;;
17606;SDS011;69222;52.242;20.980;2023-05-23T09:21:02;2.95;;;2.03;;
17606;SDS011;69222;52.242;20.980;2023-05-23T09:23:31;2.42;;;2.03;;
17606;SDS011;69222;52.242;20.980;2023-05-23T09:26:01;3.92;;;2.10;;
17606;SDS011;69222;52.242;20.980;2023-05-23T09:28:30;2.30;;;2.10;;
17606;SDS011;69222;52.242;20.980;2023-05-23T09:30:59;3.97;;;1.98;;
17606;SDS011;69222;52.242;20.980;2023-05-23T09:33:28;3.38;;;1.92;;
17606;SDS011;69222;52.242;20.980;2023-05-23T09:36:02;3.63;;;1.75;;
17606;SDS011;69222;52.242;20.980;2023-05-23T09:38:33;4.65;;;1.73;;
17606;SDS011;69222;52.242;20.980;2023-05-23T09:41:04;2.65;;;2.00;;
17606;SDS011;69222;52.242;20.980;2023-05-23T09:43:33;3.25;;;1.70;;
17606;SDS011;69222;52.242;20.980;2023-05-23T09:46:05;2.55;;;1.63;;
17606;SDS011;69222;52.242;20.980;2023-05-23T09:48:34;1.95;;;1.80;;
17606;SDS011;69222;52.242;20.980;2023-05-23T09:51:02;3.72;;;1.90;;
17606;SDS011;69222;52.242;20.980;2023-05-23T09:53:32;4.22;;;2.25;;
17606;SDS011;69222;52.242;20.980;2023-05-23T09:56:01;2.65;;;2.42;;
17606;SDS011;69222;52.242;20.980;2023-05-23T09:58:30;2.55;;;1.98;;
17606;SDS011;69222;52.242;20.980;2023-05-23T10:00:59;5.57;;;2.17;;
17606;SDS011;69222;52.242;20.980;2023-05-23T10:03:30;3.30;;;2.00;;
17606;SDS011;69222;52.242;20.980;2023-05-23T10:06:03;1.80;;;1.60;;
17606;SDS011;69222;52.242;20.980;2023-05-23T10:08:37;3.65;;;2.05;;
17606;SDS011;69222;52.242;20.980;2023-05-23T10:14:08;2.13;;;1.70;;
17606;SDS011;69222;52.242;20.980;2023-05-23T10:16:39;2.15;;;1.88;;
17606;SDS011;69222;52.242;20.980;2023-05-23T10:19:16;4.65;;;2.10;;
17606;SDS011;69222;52.242;20.980;2023-05-23T10:21:52;5.10;;;1.90;;
17606;SDS011;69222;52.242;20.980;2023-05-23T10:24:27;3.60;;;2.08;;
17606;SDS011;69222;52.242;20.980;2023-05-23T10:26:56;2.50;;;1.98;;
17606;SDS011;69222;52.242;20.980;2023-05-23T10:29:24;2.95;;;2.30;;
17606;SDS011;69222;52.242;20.980;2023-05-23T10:31:54;3.08;;;2.30;;
17606;SDS011;69222;52.242;20.980;2023-05-23T10:34:24;2.30;;;2.10;;
17606;SDS011;69222;52.242;20.980;2023-05-23T10:36:59;3.72;;;1.92;;
17606;SDS011;69222;52.242;20.980;2023-05-23T10:39:41;4.07;;;1.77;;
17606;SDS011;69222;52.242;20.980;2023-05-23T10:42:18;2.65;;;2.35;;
17606;SDS011;69222;52.242;20.980;2023-05-23T10:44:50;1.83;;;1.73;;
17606;SDS011;69222;52.242;20.980;2023-05-23T10:47:26;2.60;;;2.40;;
17606;SDS011;69222;52.242;20.980;2023-05-23T10:49:54;2.78;;;2.00;;
17606;SDS011;69222;52.242;20.980;2023-05-23T10:52:23;3.75;;;1.85;;
17606;SDS011;69222;52.242;20.980;2023-05-23T10:54:54;2.95;;;1.88;;
17606;SDS011;69222;52.242;20.980;2023-05-23T10:57:24;2.42;;;1.80;;
17606;SDS011;69222;52.242;20.980;2023-05-23T10:59:54;5.00;;;2.20;;
17606;SDS011;69222;52.242;20.980;2023-05-23T11:02:24;1.98;;;1.75;;
17606;SDS011;69222;52.242;20.980;2023-05-23T11:10:54;2.83;;;2.10;;
17606;SDS011;69222;52.242;20.980;2023-05-23T11:13:25;2.60;;;1.95;;
17606;SDS011;69222;52.242;20.980;2023-05-23T11:16:22;2.85;;;1.90;;
17606;SDS011;69222;52.242;20.980;2023-05-23T11:18:51;2.22;;;1.75;;
17606;SDS011;69222;52.242;20.980;2023-05-23T11:21:20;3.25;;;2.08;;
17606;SDS011;69222;52.242;20.980;2023-05-23T11:23:49;3.80;;;1.80;;
17606;SDS011;69222;52.242;20.980;2023-05-23T11:26:31;4.15;;;2.42;;
17606;SDS011;69222;52.242;20.980;2023-05-23T11:28:59;2.60;;;2.22;;
17606;SDS011;69222;52.242;20.980;2023-05-23T11:31:29;4.80;;;2.28;;
17606;SDS011;69222;52.242;20.980;2023-05-23T11:33:57;3.80;;;2.15;;
17606;SDS011;69222;52.242;20.980;2023-05-23T11:36:25;3.05;;;2.10;;
17606;SDS011;69222;52.242;20.980;2023-05-23T11:38:54;3.17;;;2.10;;
17606;SDS011;69222;52.242;20.980;2023-05-23T11:41:22;2.78;;;2.00;;
17606;SDS011;69222;52.242;20.980;2023-05-23T11:43:57;3.72;;;2.30;;
17606;SDS011;69222;52.242;20.980;2023-05-23T11:46:27;3.85;;;1.92;;
17606;SDS011;69222;52.242;20.980;2023-05-23T11:48:55;5.93;;;2.05;;
17606;SDS011;69222;52.242;20.980;2023-05-23T11:51:23;1.83;;;1.73;;
17606;SDS011;69222;52.242;20.980;2023-05-23T11:53:51;3.13;;;2.38;;
17606;SDS011;69222;52.242;20.980;2023-05-23T11:56:19;2.92;;;2.08;;
17606;SDS011;69222;52.242;20.980;2023-05-23T11:58:48;3.35;;;1.98;;
17606;SDS011;69222;52.242;20.980;2023-05-23T12:01:17;3.45;;;2.17;;
17606;SDS011;69222;52.242;20.980;2023-05-23T12:03:46;3.25;;;2.38;;
17606;SDS011;69222;52.242;20.980;2023-05-23T12:06:17;4.47;;;1.90;;
17606;SDS011;69222;52.242;20.980;2023-05-23T12:08:47;5.60;;;2.40;;
17606;SDS011;69222;52.242;20.980;2023-05-23T12:11:15;2.72;;;2.28;;
17606;SDS011;69222;52.242;20.980;2023-05-23T12:13:44;2.80;;;2.03;;
17606;SDS011;69222;52.242;20.980;2023-05-23T12:16:12;2.55;;;2.20;;
17606;SDS011;69222;52.242;20.980;2023-05-23T12:18:43;2.10;;;1.88;;
17606;SDS011;69222;52.242;20.980;2023-05-23T12:21:11;4.03;;;2.08;;
17606;SDS011;69222;52.242;20.980;2023-05-23T12:23:39;4.70;;;2.75;;
17606;SDS011;69222;52.242;20.980;2023-05-23T12:26:08;2.88;;;2.08;;
17606;SDS011;69222;52.242;20.980;2023-05-23T12:28:37;4.95;;;2.33;;
17606;SDS011;69222;52.242;20.980;2023-05-23T12:31:10;2.95;;;2.28;;
17606;SDS011;69222;52.242;20.980;2023-05-23T12:33:39;2.97;;;2.28;;
17606;SDS011;69222;52.242;20.980;2023-05-23T12:36:10;2.78;;;2.47;;
17606;SDS011;69222;52.242;20.980;2023-05-23T12:38:40;4.25;;;2.35;;
17606;SDS011;69222;52.242;20.980;2023-05-23T12:41:11;5.05;;;2.60;;
17606;SDS011;69222;52.242;20.980;2023-05-23T12:43:48;5.03;;;2.38;;
17606;SDS011;69222;52.242;20.980;2023-05-23T12:46:21;2.70;;;2.15;;
17606;SDS011;69222;52.242;20.980;2023-05-23T12:48:50;3.95;;;2.40;;
17606;SDS011;69222;52.242;20.980;2023-05-23T12:51:20;3.97;;;2.45;;
17606;SDS011;69222;52.242;20.980;2023-05-23T12:53:48;2.97;;;2.42;;
17606;SDS011;69222;52.242;20.980;2023-05-23T12:56:16;2.88;;;2.20;;
17606;SDS011;69222;52.242;20.980;2023-05-23T12:58:44;3.17;;;2.88;;
17606;SDS011;69222;52.242;20.980;2023-05-23T13:01:12;3.80;;;2.70;;
17606;SDS011;69222;52.242;20.980;2023-05-23T13:03:40;2.97;;;2.38;;
17606;SDS011;69222;52.242;20.980;2023-05-23T13:06:09;2.72;;;2.45;;
17606;SDS011;69222;52.242;20.980;2023-05-23T13:08:38;2.70;;;2.50;;
17606;SDS011;69222;52.242;20.980;2023-05-23T13:11:07;6.63;;;2.85;;
17606;SDS011;69222;52.242;20.980;2023-05-23T13:13:35;2.55;;;2.30;;
17606;SDS011;69222;52.242;20.980;2023-05-23T13:16:03;4.18;;;2.53;;
17606;SDS011;69222;52.242;20.980;2023-05-23T13:18:31;3.17;;;2.28;;
17606;SDS011;69222;52.242;20.980;2023-05-23T13:20:59;5.53;;;2.75;;
17606;SDS011;69222;52.242;20.980;2023-05-23T13:23:27;4.45;;;2.95;;
17606;SDS011;69222;52.242;20.980;2023-05-23T13:25:57;4.45;;;2.50;;
17606;SDS011;69222;52.242;20.980;2023-05-23T13:28:25;3.80;;;2.60;;
17606;SDS011;69222;52.242;20.980;2023-05-23T13:30:54;3.05;;;2.42;;
17606;SDS011;69222;52.242;20.980;2023-05-23T13:33:22;4.90;;;2.30;;
17606;SDS011;69222;52.242;20.980;2023-05-23T13:35:50;2.58;;;2.38;;
17606;SDS011;69222;52.242;20.980;2023-05-23T13:38:19;2.63;;;2.42;;
17606;SDS011;69222;52.242;20.980;2023-05-23T13:40:50;3.97;;;2.25;;
17606;SDS011;69222;52.242;20.980;2023-05-23T13:43:20;3.75;;;2.38;;
17606;SDS011;69222;52.242;20.980;2023-05-23T13:45:48;3.83;;;2.70;;
17606;SDS011;69222;52.242;20.980;2023-05-23T13:48:19;4.30;;;2.63;;
17606;SDS011;69222;52.242;20.980;2023-05-23T13:50:47;4.95;;;2.38;;
17606;SDS011;69222;52.242;20.980;2023-05-23T13:53:15;3.03;;;2.17;;
17606;SDS011;69222;52.242;20.980;2023-05-23T13:55:43;6.07;;;2.13;;
17606;SDS011;69222;52.242;20.980;2023-05-23T13:58:11;3.75;;;2.13;;
17606;SDS011;69222;52.242;20.980;2023-05-23T14:00:41;4.50;;;2.50;;
17606;SDS011;69222;52.242;20.980;2023-05-23T14:03:09;6.82;;;2.60;;
17606;SDS011;69222;52.242;20.980;2023-05-23T14:05:38;3.42;;;2.63;;
17606;SDS011;69222;52.242;20.980;2023-05-23T14:08:06;4.95;;;2.55;;
17606;SDS011;69222;52.242;20.980;2023-05-23T14:10:34;3.85;;;2.60;;
17606;SDS011;69222;52.242;20.980;2023-05-23T14:13:02;2.78;;;2.33;;
17606;SDS011;69222;52.242;20.980;2023-05-23T14:15:32;5.32;;;2.85;;
17606;SDS011;69222;52.242;20.980;2023-05-23T14:18:01;3.92;;;2.75;;
17606;SDS011;69222;52.242;20.980;2023-05-23T14:20:30;2.65;;;2.40;;
17606;SDS011;69222;52.242;20.980;2023-05-23T14:22:58;4.15;;;2.35;;
17606;SDS011;69222;52.242;20.980;2023-05-23T14:25:27;6.43;;;2.55;;
17606;SDS011;69222;52.242;20.980;2023-05-23T14:27:55;3.40;;;2.38;;
17606;SDS011;69222;52.242;20.980;2023-05-23T14:30:23;2.55;;;2.35;;
17606;SDS011;69222;52.242;20.980;2023-05-23T14:32:54;3.17;;;2.67;;
17606;SDS011;69222;52.242;20.980;2023-05-23T14:35:23;3.05;;;2.67;;
17606;SDS011;69222;52.242;20.980;2023-05-23T14:37:52;3.05;;;2.70;;
17606;SDS011;69222;52.242;20.980;2023-05-23T14:40:20;4.05;;;2.88;;
17606;SDS011;69222;52.242;20.980;2023-05-23T14:42:49;4.20;;;3.05;;
17606;SDS011;69222;52.242;20.980;2023-05-23T14:45:17;6.03;;;2.70;;
17606;SDS011;69222;52.242;20.980;2023-05-23T14:47:46;3.90;;;2.63;;
17606;SDS011;69222;52.242;20.980;2023-05-23T14:50:14;3.80;;;2.63;;
17606;SDS011;69222;52.242;20.980;2023-05-23T14:52:44;3.47;;;2.97;;
17606;SDS011;69222;52.242;20.980;2023-05-23T14:55:12;2.70;;;2.50;;
17606;SDS011;69222;52.242;20.980;2023-05-23T14:57:40;4.25;;;3.33;;